createdAt,value
2019-02-16T12:18:06.428Z,100773.06
2019-02-16T12:20:44.548Z,100776.50
2019-02-16T12:23:16.448Z,100775.22
2019-02-16T12:25:53.988Z,100770.38
2019-02-16T12:28:33.109Z,100775.36
2019-02-16T12:31:10.808Z,100772.42
2019-02-16T12:33:42.767Z,100763.34
2019-02-16T12:36:31.110Z,100769.27
2019-02-16T12:39:04.757Z,100760.22
2019-02-16T12:41:35.848Z,100760.91
2019-02-16T12:44:25.628Z,100759.96
2019-02-16T12:47:06.387Z,100749.31
2019-02-16T12:49:50.128Z,100740.39
2019-02-16T12:52:21.788Z,100739.55
2019-02-16T12:55:14.393Z,100746.53
2019-02-16T12:57:44.349Z,100744.14
2019-02-16T13:00:18.872Z,100742.91
2019-02-16T13:03:07.330Z,100741.80
2019-02-16T13:05:41.731Z,100744.67
2019-02-16T13:08:13.608Z,100742.69
2019-02-16T13:10:45.254Z,100743.55
2019-02-16T13:13:25.922Z,100741.03
2019-02-16T13:16:13.947Z,100733.20
2019-02-16T13:18:51.448Z,100721.83
2019-02-16T13:21:28.827Z,100726.86
2019-02-16T13:24:03.350Z,100718.11
2019-02-16T13:26:50.368Z,100716.86
2019-02-16T13:29:35.328Z,100717.47
2019-02-16T13:32:07.288Z,100710.09
2019-02-16T13:34:41.608Z,100699.69
2019-02-16T13:37:22.168Z,100698.50
2019-02-16T13:40:10.129Z,100697.31
2019-02-16T13:42:40.072Z,100699.95
2019-02-16T13:45:12.089Z,100700.23
2019-02-16T13:47:49.988Z,100702.09
2019-02-16T13:50:36.988Z,100696.23
2019-02-16T13:53:17.447Z,100691.02
2019-02-16T13:55:58.271Z,100692.81
2019-02-16T13:58:29.909Z,100694.22
2019-02-16T14:01:17.828Z,100694.00
2019-02-16T14:03:55.007Z,100693.40
2019-02-16T14:06:29.748Z,100689.00
2019-02-16T14:09:01.388Z,100687.44
2019-02-16T14:11:37.329Z,100687.44
2019-02-16T14:14:25.380Z,100681.95
2019-02-16T14:16:57.327Z,100682.24
2019-02-16T14:19:27.647Z,100678.71
2019-02-16T14:21:57.668Z,100679.12
2019-02-16T14:24:41.809Z,100671.95
2019-02-16T14:27:12.057Z,100671.94
2019-02-16T14:29:42.248Z,100680.73
2019-02-16T14:32:12.168Z,100677.31
2019-02-16T14:34:42.431Z,100670.34
2019-02-16T14:37:30.333Z,100669.98
2019-02-16T14:40:00.507Z,100663.41
2019-02-16T14:42:30.567Z,100666.16
2019-02-16T14:45:00.894Z,100660.36
2019-02-16T14:47:30.927Z,100659.17
2019-02-16T14:50:01.256Z,100657.41
2019-02-16T14:52:31.427Z,100650.63
2019-02-16T14:55:01.468Z,100650.63
2019-02-16T14:57:31.841Z,100647.02
2019-02-16T15:00:02.208Z,100638.06
2019-02-16T15:02:32.167Z,100632.84
2019-02-16T15:05:02.247Z,100631.03
2019-02-16T15:07:32.527Z,100632.01
2019-02-16T15:10:02.587Z,100636.59
2019-02-16T15:12:32.507Z,100639.34
2019-02-16T15:15:02.627Z,100632.36
2019-02-16T15:17:32.828Z,100627.40
2019-02-16T15:20:02.947Z,100630.82
2019-02-16T15:22:33.468Z,100631.23
2019-02-16T15:25:03.489Z,100629.63
2019-02-16T15:27:33.747Z,100632.94
2019-02-16T15:30:03.729Z,100623.45
2019-02-16T15:32:33.827Z,100622.52
2019-02-16T15:35:04.030Z,100614.51
2019-02-16T15:37:34.187Z,100620.66
2019-02-16T15:40:04.207Z,100623.42
2019-02-16T15:42:34.308Z,100628.39
2019-02-16T15:45:05.250Z,100623.33
2019-02-16T15:47:35.527Z,100623.09
2019-02-16T15:50:08.888Z,100615.61
2019-02-16T15:52:38.928Z,100608.56
2019-02-16T15:55:11.507Z,100619.05
2019-02-16T15:57:41.574Z,100611.83
2019-02-16T16:00:23.920Z,100610.78
2019-02-16T16:02:54.007Z,100604.92
2019-02-16T16:05:24.107Z,100603.92
2019-02-16T16:07:55.767Z,100602.27
2019-02-16T16:10:31.628Z,100595.84
2019-02-16T16:13:15.588Z,100599.00
2019-02-16T16:16:05.747Z,100596.60
2019-02-16T16:18:43.448Z,100588.57
2019-02-16T16:21:33.848Z,100592.91
2019-02-16T16:24:03.753Z,100584.33
2019-02-16T16:26:44.308Z,100590.45
2019-02-16T16:29:22.228Z,100592.83
2019-02-16T16:31:57.867Z,100591.45
2019-02-16T16:34:45.007Z,100599.25
2019-02-16T16:37:19.471Z,100597.20
2019-02-16T16:39:59.647Z,100591.34
2019-02-16T16:42:35.729Z,100596.50
2019-02-16T16:45:12.068Z,100588.50
2019-02-16T16:47:56.868Z,100586.86
2019-02-16T16:50:41.927Z,100588.25
2019-02-16T16:53:13.654Z,100581.28
2019-02-16T16:55:45.309Z,100581.19
2019-02-16T16:58:33.369Z,100574.61
2019-02-16T17:01:05.067Z,100571.61
2019-02-16T17:03:52.751Z,100565.83
2019-02-16T17:06:28.287Z,100568.77
2019-02-16T17:09:16.228Z,100565.19
2019-02-16T17:11:58.028Z,100564.37
2019-02-16T17:14:33.767Z,100561.73
2019-02-16T17:17:14.228Z,100560.13
2019-02-16T17:19:49.567Z,100558.91
2019-02-16T17:22:21.828Z,100562.27
2019-02-16T17:25:02.488Z,100563.45
2019-02-16T17:27:37.227Z,100559.27
2019-02-16T17:30:11.967Z,100561.64
2019-02-16T17:32:46.367Z,100558.85
2019-02-16T17:35:18.127Z,100556.82
2019-02-16T17:37:53.051Z,100559.61
2019-02-16T17:40:24.807Z,100561.97
2019-02-16T17:42:59.428Z,100563.15
2019-02-16T17:45:31.167Z,100565.36
2019-02-16T17:48:19.228Z,100558.39
2019-02-16T17:51:07.167Z,100547.70
2019-02-16T17:53:42.167Z,100545.13
2019-02-16T17:56:16.648Z,100542.52
2019-02-16T17:58:46.551Z,100544.06
2019-02-16T18:01:24.027Z,100537.85
2019-02-16T18:03:55.870Z,100548.45
2019-02-16T18:06:40.507Z,100548.67
2019-02-16T18:09:18.247Z,100538.48
2019-02-16T18:11:59.007Z,100539.24
2019-02-16T18:14:30.648Z,100535.06
2019-02-16T18:17:00.587Z,100533.25
2019-02-16T18:19:38.267Z,100530.85
2019-02-16T18:22:19.847Z,100537.00
2019-02-16T18:24:51.839Z,100531.21
2019-02-16T18:27:39.731Z,100533.42
2019-02-16T18:30:24.709Z,100525.30
2019-02-16T18:33:00.867Z,100518.55
2019-02-16T18:35:48.007Z,100520.16
2019-02-16T18:38:31.727Z,100522.09
2019-02-16T18:41:07.443Z,100523.67
2019-02-16T18:43:45.162Z,100530.03
2019-02-16T18:46:16.990Z,100531.21
2019-02-16T18:48:48.488Z,100529.82
2019-02-16T18:51:36.215Z,100531.00
2019-02-16T18:54:06.187Z,100534.97
2019-02-16T18:56:43.503Z,100529.39
2019-02-16T18:59:21.008Z,100528.82
2019-02-16T19:01:51.010Z,100529.76
2019-02-16T19:04:31.387Z,100523.19
2019-02-16T19:07:03.867Z,100520.61
2019-02-16T19:09:33.924Z,100528.55
2019-02-16T19:12:03.667Z,100532.52
2019-02-16T19:14:41.367Z,100525.55
2019-02-16T19:17:13.135Z,100531.27
2019-02-16T19:19:53.808Z,100519.70
2019-02-16T19:22:28.453Z,100519.06
2019-02-16T19:25:01.269Z,100523.84
2019-02-16T19:27:36.331Z,100512.27
2019-02-16T19:30:09.070Z,100512.06
2019-02-16T19:32:49.767Z,100517.63
2019-02-16T19:35:21.648Z,100527.17
2019-02-16T19:37:53.248Z,100531.14
2019-02-16T19:40:29.268Z,100541.11
2019-02-16T19:43:16.979Z,100545.28
2019-02-16T19:46:04.908Z,100550.46
2019-02-16T19:48:45.668Z,100548.64
2019-02-16T19:51:33.627Z,100544.32
2019-02-16T19:54:14.287Z,100550.35
2019-02-16T19:56:58.107Z,100541.78
2019-02-16T19:59:36.028Z,100529.63
2019-02-16T20:02:22.827Z,100527.63
2019-02-16T20:05:06.568Z,100530.42
2019-02-16T20:07:54.708Z,100529.63
2019-02-16T20:10:29.647Z,100529.19
2019-02-16T20:12:59.447Z,100529.25
2019-02-16T20:15:35.107Z,100524.75
2019-02-16T20:18:15.867Z,100522.46
2019-02-16T20:21:03.327Z,100521.56
2019-02-16T20:23:43.448Z,100518.22
2019-02-16T20:26:33.527Z,100522.53
2019-02-16T20:29:05.191Z,100522.67
2019-02-16T20:31:39.677Z,100523.66
2019-02-16T20:34:09.407Z,100531.47
2019-02-16T20:36:41.267Z,100526.91
2019-02-16T20:39:26.567Z,100522.95
2019-02-16T20:41:58.407Z,100523.52
2019-02-16T20:44:48.287Z,100519.17
2019-02-16T20:47:22.783Z,100522.02
2019-02-16T20:50:04.928Z,100509.46
2019-02-16T20:52:40.850Z,100517.63
2019-02-16T20:55:15.796Z,100522.38
2019-02-16T20:57:50.507Z,100519.45
2019-02-16T21:00:35.791Z,100516.53
2019-02-16T21:03:11.842Z,100521.44
2019-02-16T21:05:49.323Z,100518.98
2019-02-16T21:08:19.377Z,100517.72
2019-02-16T21:10:53.784Z,100525.88
2019-02-16T21:13:28.923Z,100524.22
2019-02-16T21:16:09.662Z,100524.62
2019-02-16T21:18:44.422Z,100517.64
2019-02-16T21:21:28.082Z,100522.80
2019-02-16T21:24:06.665Z,100526.56
2019-02-16T21:26:48.790Z,100526.92
2019-02-16T21:29:23.763Z,100518.54
2019-02-16T21:31:56.122Z,100514.35
2019-02-16T21:34:46.044Z,100511.78
2019-02-16T21:37:28.371Z,100506.77
2019-02-16T21:40:00.328Z,100502.78
2019-02-16T21:42:46.242Z,100498.72
2019-02-16T21:45:23.072Z,100505.11
2019-02-16T21:48:07.125Z,100509.08
2019-02-16T21:50:44.723Z,100515.84
2019-02-16T21:53:21.011Z,100507.05
2019-02-16T21:55:48.077Z,100513.81
2019-02-16T21:58:31.844Z,100511.18
2019-02-16T22:01:09.442Z,100517.12
2019-02-16T22:03:47.342Z,100516.48
2019-02-16T22:06:35.568Z,100512.09
2019-02-16T22:09:07.262Z,100521.64
2019-02-16T22:11:42.022Z,100516.45
2019-02-16T22:14:12.183Z,100515.64
2019-02-16T22:16:42.423Z,100506.06
2019-02-16T22:19:12.585Z,100517.58
2019-02-16T22:21:42.543Z,100513.58
2019-02-16T22:24:12.792Z,100506.41
2019-02-16T22:26:43.022Z,100505.98
2019-02-16T22:29:13.102Z,100507.73
2019-02-16T22:31:43.442Z,100512.89
2019-02-16T22:34:13.342Z,100512.09
2019-02-16T22:36:43.462Z,100516.85
2019-02-16T22:39:13.562Z,100527.79
2019-02-16T22:41:43.603Z,100522.79
2019-02-16T22:44:14.004Z,100518.80
2019-02-16T22:46:44.022Z,100515.58
2019-02-16T22:49:14.243Z,100513.77
2019-02-16T22:51:44.282Z,100509.94
2019-02-16T22:54:14.242Z,100509.73
2019-02-16T22:56:44.302Z,100518.70
2019-02-16T22:59:14.202Z,100514.09
2019-02-16T23:01:44.322Z,100515.84
2019-02-16T23:04:14.522Z,100516.66
2019-02-16T23:06:44.582Z,100521.20
2019-02-16T23:09:16.442Z,100520.42
2019-02-16T23:11:46.682Z,100520.78
2019-02-16T23:14:16.802Z,100521.59
2019-02-16T23:16:46.862Z,100511.42
2019-02-16T23:19:17.088Z,100514.78
2019-02-16T23:21:47.242Z,100511.42
2019-02-16T23:24:19.142Z,100515.39
2019-02-16T23:26:49.342Z,100515.17
2019-02-16T23:29:19.302Z,100518.75
2019-02-16T23:31:49.542Z,100509.17
2019-02-16T23:34:19.642Z,100520.53
2019-02-16T23:36:49.871Z,100507.17
2019-02-16T23:39:20.162Z,100509.39
2019-02-16T23:41:50.222Z,100511.96
2019-02-16T23:44:20.622Z,100508.97
2019-02-16T23:46:51.559Z,100508.72
2019-02-16T23:49:21.862Z,100513.29
2019-02-16T23:51:52.002Z,100513.08
2019-02-16T23:54:22.322Z,100513.86
2019-02-16T23:56:52.262Z,100515.05
2019-02-16T23:59:22.684Z,100508.47
